Eielson Air Force Base, AK (99702)

4:51 AM AKDT on September 01, 2015 (GMT -0800)
Eielson AFB Housing | | Change Station
CLOSE
Current Station
Personal Weather Station
Location: Fairbanks, AK
Elevation: 548 ft
Nearby Weather Stations

Elev 548 ft 64.68 °N, 147.08 °W | Updated 13 minutes ago

Overcast
Overcast
40.8 °F
Feels Like 41 °F
N
1.1
Wind Variable Wind from South

Today
High -- | Low -- °F
--% Chance of Precip.
Yesterday
High -- | Low -- °F
Precip. -- in
6:28 AM 9:05 PM
Waning Gibbous, 89% visible
Pressure 29.96 in
Visibility 10.0 miles
Clouds Overcast 7000 ft
Windchill 41 °F
Dew Point 36 °F
Humidity 82%
Rainfall 0.00 in
Snow Depth Not available.
UV 0 out of 12
Pollen Not available.
Air Quality Not available.
Flu Activity Not available.
METAR PAEI 011058Z AUTO VRB04KT 10SM OVC070 03/02 A2994 RMK AO2 SLP146 T00340016 $
Pressure 29.96 in
Visibility 10.0 miles
Clouds Overcast 7000 ft
Windchill 41 °F
Dew Point 36 °F
Humidity 82%
Rainfall 0.00 in
Snow Depth Not available.
UV 0 out of 12
Pollen Not available.
Air Quality Not available.
Flu Activity Not available.
METAR PAEI 011058Z AUTO VRB04KT 10SM OVC070 03/02 A2994 RMK AO2 SLP146 T00340016 $

10-Day Weather Forecast

×

Almanac

Astronomy

Sep. 01, 2015 Rise Set
Actual Time
Civil Twilight
Nautical Twilight
Astronomical Twilight
Moon
Length of Visible Light
Length of Day
Tomorrow will be .
, % of the Moon is Illuminated

Today's Extremes

State Highs State Lows

Community

WunderPhotos

Upload Photos

1,851,510 photos uploaded!

WunderBlogs® & News

Nearby

Air Quality

  Air Quality AQ Index Pollutant
Not available.

Snow Depth

Station Depth Elevation

Earthquake Activity

City Distance Mag. Time & Date
Minimum magnitude displayed is 2.5.

Coastal Water Temperatures

Place Temperature

Stations

Nearby Weather Stations

Station Location Temp. Windchill Dew Point Humidity Wind Precip. Elev Updated Type